Time;durP1;ratioP1;P1;durP2;ratioP2;P2;SDS_P1;SDS_P2;PMS_P1;PMS_P2;Temp;Humidity;BMP_temperature;BMP_pressure;BME280_temperature;BME280_humidity;BME280_pressure;Samples;Min_cycle;Max_cycle;Signal;HPM_P1;HPM_P2
2022/11/28 00:02:05;;;;;;;48.67;28.98;;;;;;;6.80;100.00;100734.41;5113113;28;20043;-57
2022/11/28 00:04:30;;;;;;;33.97;25.52;;;;;;;6.84;100.00;100734.34;5113531;28;20031;-56
2022/11/28 00:06:56;;;;;;;46.80;27.52;;;;;;;6.22;100.00;100630.00;5113333;28;20040;-56
2022/11/28 00:09:21;;;;;;;40.25;26.40;;;;;;;6.87;100.00;100737.75;5113325;28;20367;-57
2022/11/28 00:11:47;;;;;;;43.40;27.42;;;;;;;6.52;100.00;100664.31;5113319;28;20088;-57
2022/11/28 00:14:14;;;;;;;46.38;25.17;;;;;;;6.85;100.00;100715.16;5095317;28;20035;-57
2022/11/28 00:16:40;;;;;;;39.75;26.67;;;;;;;6.92;100.00;100730.69;5113349;28;20101;-57
2022/11/28 00:19:06;;;;;;;35.17;23.60;;;;;;;6.83;100.00;100701.25;5113082;28;20036;-57
2022/11/28 00:21:31;;;;;;;36.83;23.83;;;;;;;6.67;100.00;100661.44;5094998;28;20130;-57
2022/11/28 00:23:57;;;;;;;35.28;23.73;;;;;;;7.04;100.00;100722.59;5113214;28;20028;-57
2022/11/28 00:26:28;;;;;;;38.10;24.08;;;;;;;7.03;100.00;100714.78;5113143;28;20023;-56
2022/11/28 00:28:55;;;;;;;37.47;24.00;;;;;;;6.69;100.00;100659.63;5113326;28;20081;-56
2022/11/28 00:31:23;;;;;;;35.35;24.13;;;;;;;7.05;100.00;100734.81;5113168;28;20046;-56
2022/11/28 00:33:49;;;;;;;36.33;24.02;;;;;;;7.10;100.00;100743.41;5113178;28;20023;-58
2022/11/28 00:36:15;;;;;;;33.40;21.88;;;;;;;7.09;100.00;100744.28;5094550;28;20028;-56
2022/11/28 00:38:40;;;;;;;36.55;22.50;;;;;;;6.73;100.00;100667.41;5112688;28;20058;-56
2022/11/28 00:41:09;;;;;;;35.75;22.30;;;;;;;7.13;100.00;100737.25;5077559;28;20088;-56
2022/11/28 00:43:35;;;;;;;33.05;21.17;;;;;;;7.09;100.00;100725.97;5112784;28;20151;-56
2022/11/28 00:46:01;;;;;;;29.58;20.00;;;;;;;7.18;100.00;100727.56;5112906;28;20517;-56
2022/11/28 00:48:26;;;;;;;28.17;19.88;;;;;;;7.22;100.00;100717.00;5112893;28;20119;-56
2022/11/28 00:50:52;;;;;;;32.33;20.17;;;;;;;7.22;100.00;100710.91;5112686;28;20055;-57
2022/11/28 00:53:18;;;;;;;32.50;20.48;;;;;;;7.28;100.00;100722.13;5094693;28;20393;-57
2022/11/28 00:55:43;;;;;;;28.63;18.50;;;;;;;6.97;100.00;100647.75;5111631;28;20043;-57
2022/11/28 00:58:09;;;;;;;24.00;18.67;;;;;;;7.40;100.00;100713.13;5094559;28;20067;-57
2022/11/28 01:00:35;;;;;;;27.33;19.25;;;;;;;7.15;100.00;100672.66;5112698;28;20054;-57
2022/11/28 01:03:00;;;;;;;29.33;18.98;;;;;;;7.38;100.00;100702.69;5112435;28;20035;-58
2022/11/28 01:05:25;;;;;;;28.50;20.25;;;;;;;7.38;100.00;100700.06;5112603;28;20106;-57
2022/11/28 01:07:51;;;;;;;29.45;19.88;;;;;;;7.32;100.00;100696.72;5112489;28;20050;-57
2022/11/28 01:10:16;;;;;;;32.55;21.15;;;;;;;6.90;100.00;100616.47;5112221;28;20038;-58
2022/11/28 01:12:42;;;;;;;36.92;20.73;;;;;;;7.06;100.00;100642.31;5094311;28;20032;-58
2022/11/28 01:15:11;;;;;;;33.42;21.23;;;;;;;6.99;100.00;100629.38;5112392;28;20067;-57
2022/11/28 01:17:36;;;;;;;34.55;21.38;;;;;;;6.80;100.00;100592.25;5112331;28;20510;-57
2022/11/28 01:20:04;;;;;;;33.42;21.23;;;;;;;6.99;100.00;100621.53;5112392;28;20074;-57
2022/11/28 01:22:30;;;;;;;35.05;21.73;;;;;;;7.05;100.00;100635.34;5112380;28;20047;-58
2022/11/28 01:24:55;;;;;;;34.50;21.17;;;;;;;7.01;100.00;100617.97;5112498;28;20040;-58
2022/11/28 01:27:20;;;;;;;35.17;23.23;;;;;;;6.98;100.00;100610.19;5093928;28;20493;-58
2022/11/28 01:29:45;;;;;;;40.55;23.33;;;;;;;7.46;100.00;100685.94;5112375;28;20031;-58
2022/11/28 01:32:11;;;;;;;34.45;21.85;;;;;;;7.16;100.00;100645.59;5112296;28;20093;-58
2022/11/28 01:34:36;;;;;;;36.03;22.80;;;;;;;7.08;100.00;100611.72;5112340;28;20062;-57
2022/11/28 01:37:01;;;;;;;33.25;22.20;;;;;;;7.07;100.00;100606.50;5111939;28;20039;-57
2022/11/28 01:39:27;;;;;;;33.58;22.48;;;;;;;7.47;100.00;100672.84;5111872;28;20502;-57
2022/11/28 01:41:52;;;;;;;29.42;21.45;;;;;;;7.55;100.00;100667.41;5093728;28;20127;-58
2022/11/28 01:44:17;;;;;;;30.88;22.05;;;;;;;7.60;100.00;100682.13;5111955;28;20055;-58
2022/11/28 01:46:42;;;;;;;32.00;22.05;;;;;;;7.64;100.00;100686.41;5112017;28;20067;-58
2022/11/28 01:49:11;;;;;;;33.65;22.95;;;;;;;7.57;100.00;100676.09;5112014;28;20028;-59
2022/11/28 01:51:37;;;;;;;31.95;22.23;;;;;;;7.64;100.00;100682.94;5093838;28;20034;-57
2022/11/28 01:54:03;;;;;;;32.00;22.13;;;;;;;7.70;100.00;100677.53;5093719;28;20110;-58
2022/11/28 01:56:37;;;;;;;31.00;21.42;;;;;;;7.67;100.00;100665.38;5093975;28;20453;-57
2022/11/28 01:59:06;;;;;;;30.70;21.83;;;;;;;7.40;100.00;100615.38;5093924;28;20046;-57
2022/11/28 02:01:31;;;;;;;32.70;22.08;;;;;;;7.35;100.00;100598.00;5076890;28;20027;-58
2022/11/28 02:03:57;;;;;;;31.15;21.15;;;;;;;7.38;100.00;100603.19;5111986;28;20080;-58
2022/11/28 02:06:24;;;;;;;31.65;21.30;;;;;;;7.67;100.00;100649.66;5095094;28;20497;-57
2022/11/28 02:08:53;;;;;;;33.10;21.02;;;;;;;7.78;100.00;100668.59;5097649;28;20400;-57
2022/11/28 02:11:43;;;;;;;33.42;21.67;;;;;;;7.80;100.00;100668.56;5115970;28;20039;-58
2022/11/28 02:14:21;;;;;;;31.40;21.58;;;;;;;7.83;100.00;100663.25;5115706;28;20039;-57
2022/11/28 02:17:11;;;;;;;39.03;24.20;;;;;;;7.85;100.00;100666.72;5115331;28;20023;-56
2022/11/28 02:19:43;;;;;;;36.80;24.92;;;;;;;7.88;100.00;100670.09;5097419;28;20039;-57
2022/11/28 02:22:29;;;;;;;35.80;24.50;;;;;;;7.91;100.00;100664.78;5115512;28;20515;-57
2022/11/28 02:25:13;;;;;;;36.42;23.85;;;;;;;7.97;100.00;100650.66;5115217;28;20358;-56
2022/11/28 02:28:08;;;;;;;35.70;24.35;;;;;;;8.03;100.00;100668.84;5115444;28;20073;-58
2022/11/28 02:30:58;;;;;;;36.55;26.17;;;;;;;8.09;100.00;100658.22;5097194;28;20039;-57
2022/11/28 02:33:32;;;;;;;38.17;25.17;;;;;;;8.09;100.00;100654.75;5115214;28;20032;-56
2022/11/28 02:36:08;;;;;;;40.97;25.58;;;;;;;7.46;100.00;100561.13;5096761;28;20073;-57
2022/11/28 02:38:42;;;;;;;38.55;25.10;;;;;;;8.06;100.00;100666.16;5096838;28;20055;-57
2022/11/28 02:41:29;;;;;;;37.50;24.75;;;;;;;8.09;100.00;100654.75;5114991;28;20477;-58
2022/11/28 02:44:12;;;;;;;36.15;24.17;;;;;;;7.88;100.00;100609.00;5115284;28;20406;-57
2022/11/28 02:46:51;;;;;;;38.25;25.40;;;;;;;7.74;100.00;100590.97;5097041;28;20032;-55
2022/11/28 02:49:40;;;;;;;38.10;23.95;;;;;;;7.75;100.00;100590.09;5096795;28;20027;-55
2022/11/28 02:52:12;;;;;;;36.83;24.55;;;;;;;7.77;100.00;100580.41;5114947;28;20031;-57
2022/11/28 02:54:38;;;;;;;33.13;23.55;;;;;;;7.82;100.00;100590.78;5096843;28;20067;-57
2022/11/28 02:57:03;;;;;;;31.25;23.05;;;;;;;7.74;100.00;100575.25;5096785;28;20108;-58
2022/11/28 02:59:44;;;;;;;33.25;22.83;;;;;;;8.21;100.00;100650.06;5096609;28;20431;-58
2022/11/28 03:02:27;;;;;;;30.90;21.92;;;;;;;7.84;100.00;100578.50;5114452;28;20031;-62
2022/11/28 03:05:13;;;;;;;30.02;21.63;;;;;;;8.24;100.00;100651.72;5096532;28;20047;-58
2022/11/28 03:08:23;;;;;;;30.63;20.60;;;;;;;8.27;100.00;100656.91;5096196;28;20067;-57
2022/11/28 03:11:05;;;;;;;27.63;19.98;;;;;;;7.96;100.00;100596.53;5095772;28;20119;-57
2022/11/28 03:13:50;;;;;;;;;;;;;;;8.32;100.00;100650.66;5079777;28;20031;-57
2022/11/28 03:16:15;;;;;;;32.38;20.42;;;;;;;8.29;100.00;100645.50;5096148;28;19912;-57
2022/11/28 03:19:01;;;;;;;28.27;21.05;;;;;;;8.29;100.00;100644.66;5113582;28;20034;-57
2022/11/28 03:21:39;;;;;;;29.73;21.52;;;;;;;7.88;100.00;100574.91;5113980;28;20031;-56
2022/11/28 03:24:13;;;;;;;28.10;20.45;;;;;;;7.91;100.00;100586.16;5096363;28;20181;-57
2022/11/28 03:26:48;;;;;;;29.92;21.30;;;;;;;8.26;100.00;100647.34;5114233;28;20028;-57
2022/11/28 03:29:30;;;;;;;26.83;19.95;;;;;;;7.86;100.00;100568.84;5096206;28;20037;-57
2022/11/28 03:32:05;;;;;;;28.17;20.90;;;;;;;8.27;100.00;100649.03;5114048;28;20104;-57
2022/11/28 03:34:35;;;;;;;30.35;20.85;;;;;;;8.25;100.00;100656.97;5095988;28;20080;-57
2022/11/28 03:37:06;;;;;;;29.13;21.55;;;;;;;7.93;100.00;100601.84;5095669;28;20646;-57
2022/11/28 03:39:36;;;;;;;31.27;20.85;;;;;;;8.25;100.00;100653.47;5096028;28;20530;-56
2022/11/28 03:42:04;;;;;;;25.83;19.80;;;;;;;7.88;100.00;100583.63;5095426;28;20035;-58
2022/11/28 03:44:36;;;;;;;30.00;20.83;;;;;;;7.88;100.00;100590.66;5113797;28;20042;-58
2022/11/28 03:47:03;;;;;;;28.50;20.17;;;;;;;8.30;100.00;100657.72;5095746;28;20044;-55
2022/11/28 03:49:32;;;;;;;28.48;19.90;;;;;;;7.86;100.00;100589.78;5113841;28;20122;-57
2022/11/28 03:52:02;;;;;;;30.52;20.40;;;;;;;8.22;100.00;100658.78;5095560;28;20446;-57
2022/11/28 03:54:48;;;;;;;29.05;20.25;;;;;;;8.23;100.00;100657.91;5095372;28;20047;-57
2022/11/28 03:57:18;;;;;;;27.90;20.85;;;;;;;7.76;100.00;100578.69;5095697;28;20063;-57
2022/11/28 03:59:46;;;;;;;33.25;20.85;;;;;;;8.12;100.00;100638.94;5095387;28;20122;-57
2022/11/28 04:02:21;;;;;;;27.35;19.70;;;;;;;8.18;100.00;100644.88;5094989;28;20474;-57
2022/11/28 04:05:11;;;;;;;32.03;21.52;;;;;;;8.18;100.00;100655.38;5113367;28;20031;-57
2022/11/28 04:07:45;;;;;;;28.70;19.23;;;;;;;8.19;100.00;100651.88;5113273;28;20048;-56
2022/11/28 04:10:20;;;;;;;31.25;21.95;;;;;;;8.21;100.00;100662.28;5113911;28;20033;-55
2022/11/28 04:12:55;;;;;;;34.63;21.98;;;;;;;8.19;100.00;100654.50;5113447;28;20028;-56
2022/11/28 04:15:41;;;;;;;32.55;23.35;;;;;;;8.21;100.00;100657.91;5113374;28;20055;-59
2022/11/28 04:18:28;;;;;;;39.30;24.38;;;;;;;8.23;100.00;100663.16;5112365;28;20510;-57
2022/11/28 04:21:02;;;;;;;32.90;23.10;;;;;;;8.22;100.00;100645.69;5094919;28;20028;-58
2022/11/28 04:23:28;;;;;;;37.40;24.55;;;;;;;8.17;100.00;100653.63;5113358;28;20030;-58
2022/11/28 04:26:08;;;;;;;33.47;23.23;;;;;;;8.09;100.00;100637.25;5112995;28;20410;-58
2022/11/28 04:28:33;;;;;;;33.67;22.17;;;;;;;7.90;100.00;100602.81;5094702;28;20031;-57
2022/11/28 04:31:00;;;;;;;42.28;23.15;;;;;;;8.09;100.00;100645.13;5095310;28;20035;-56
2022/11/28 04:33:29;;;;;;;33.83;23.15;;;;;;;7.76;100.00;100596.19;5113100;28;20035;-58
2022/11/28 04:35:54;;;;;;;36.60;23.02;;;;;;;7.73;100.00;100596.25;5094866;28;20049;-58
2022/11/28 04:38:22;;;;;;;37.95;23.55;;;;;;;7.79;100.00;100611.84;5112889;28;20538;-57
2022/11/28 04:40:54;;;;;;;38.97;23.92;;;;;;;7.72;100.00;100605.88;5094514;28;20433;-57
2022/11/28 04:43:47;;;;;;;35.17;22.52;;;;;;;8.19;100.00;100679.84;5094206;28;20058;-56
2022/11/28 04:46:17;;;;;;;37.55;24.50;;;;;;;8.08;100.00;100666.16;5094694;28;20028;-57
2022/11/28 04:48:42;;;;;;;39.53;25.27;;;;;;;8.04;100.00;100657.50;5094553;28;20028;-57
2022/11/28 04:51:20;;;;;;;42.25;24.23;;;;;;;7.82;100.00;100627.47;5112732;28;20489;-57
2022/11/28 04:53:53;;;;;;;46.38;25.67;;;;;;;8.15;100.00;100686.03;5094293;28;20576;-56
2022/11/28 04:56:27;;;;;;;49.92;26.77;;;;;;;7.75;100.00;100611.03;5094761;28;20024;-57
2022/11/28 04:58:52;;;;;;;43.22;26.80;;;;;;;7.47;100.00;100557.59;5094346;28;20089;-56
2022/11/28 05:01:22;;;;;;;49.70;27.65;;;;;;;8.14;100.00;100684.34;5094180;28;20035;-56
2022/11/28 05:03:48;;;;;;;42.53;26.95;;;;;;;8.17;100.00;100673.78;5094397;28;20031;-57
2022/11/28 05:06:27;;;;;;;45.33;26.98;;;;;;;8.16;100.00;100674.66;5112473;28;20138;-57
2022/11/28 05:08:52;;;;;;;49.47;27.83;;;;;;;7.73;100.00;100609.34;5112532;28;20032;-57
2022/11/28 05:11:18;;;;;;;47.65;27.85;;;;;;;8.04;100.00;100660.09;5112557;28;20077;-58
2022/11/28 05:13:43;;;;;;;46.85;27.98;;;;;;;8.17;100.00;100679.03;5112392;28;20067;-56
2022/11/28 05:16:11;;;;;;;49.88;28.90;;;;;;;7.86;100.00;100637.84;5094212;28;20043;-56
2022/11/28 05:18:37;;;;;;;46.20;29.17;;;;;;;7.98;100.00;100665.50;5094278;28;20156;-57
2022/11/28 05:21:05;;;;;;;45.88;28.63;;;;;;;8.20;100.00;100686.81;5112233;28;20126;-57
2022/11/28 05:23:30;;;;;;;50.28;29.92;;;;;;;8.08;100.00;100672.25;5112123;28;20463;-57
2022/11/28 05:25:56;;;;;;;44.85;28.98;;;;;;;8.17;100.00;100690.34;5112459;28;20067;-57
2022/11/28 05:28:21;;;;;;;55.28;29.52;;;;;;;7.81;100.00;100629.22;5112295;28;20119;-58
2022/11/28 05:30:56;;;;;;;51.17;31.02;;;;;;;8.19;100.00;100704.31;5111946;28;20047;-59
2022/11/28 05:33:21;;;;;;;59.83;33.08;;;;;;;8.16;100.00;100695.66;5094240;28;20204;-58
2022/11/28 05:35:47;;;;;;;61.40;32.00;;;;;;;8.17;100.00;100700.00;5112109;28;20115;-58
2022/11/28 05:38:12;;;;;;;64.95;34.17;;;;;;;7.76;100.00;100631.09;5093926;28;20044;-58
2022/11/28 05:40:42;;;;;;;63.33;32.88;;;;;;;8.12;100.00;100696.59;5112786;28;20046;-58
2022/11/28 05:43:08;;;;;;;76.65;34.88;;;;;;;8.08;100.00;100694.97;5116396;28;20167;-58
2022/11/28 05:45:33;;;;;;;71.60;35.22;;;;;;;7.73;100.00;100636.44;5116256;28;20056;-57
2022/11/28 05:47:58;;;;;;;63.08;33.83;;;;;;;8.10;100.00;100719.38;5116332;28;20047;-57
2022/11/28 05:50:24;;;;;;;82.38;35.33;;;;;;;8.14;100.00;100710.56;5116041;28;20031;-57
2022/11/28 05:52:49;;;;;;;75.80;35.25;;;;;;;8.12;100.00;100712.34;5116026;28;20035;-58
2022/11/28 05:55:14;;;;;;;76.78;35.50;;;;;;;8.13;100.00;100716.69;5116039;28;20470;-58
2022/11/28 05:57:40;;;;;;;74.05;34.95;;;;;;;7.56;100.00;100622.84;5115819;28;20047;-57
2022/11/28 06:00:06;;;;;;;73.32;33.70;;;;;;;8.09;100.00;100726.38;5097946;28;20455;-57
2022/11/28 06:02:34;;;;;;;71.28;33.67;;;;;;;8.12;100.00;100728.94;5115984;28;20035;-57
2022/11/28 06:04:59;;;;;;;67.95;32.38;;;;;;;7.75;100.00;100650.34;5097578;28;20512;-57
2022/11/28 06:07:25;;;;;;;64.13;33.00;;;;;;;7.66;100.00;100637.44;5116065;28;20032;-57
2022/11/28 06:09:50;;;;;;;73.65;34.15;;;;;;;7.77;100.00;100656.41;5115777;28;20036;-57
2022/11/28 06:12:15;;;;;;;72.13;32.60;;;;;;;8.14;100.00;100716.69;5115671;28;20028;-58
2022/11/28 06:14:40;;;;;;;79.32;35.88;;;;;;;7.58;100.00;100618.44;5115685;28;20390;-58
2022/11/28 06:17:06;;;;;;;70.72;33.85;;;;;;;8.15;100.00;100713.13;5115645;28;20081;-58
2022/11/28 06:19:31;;;;;;;78.03;35.28;;;;;;;8.12;100.00;100689.59;5115748;28;20413;-57
2022/11/28 06:21:56;;;;;;;88.97;37.78;;;;;;;8.16;100.00;100701.75;5115408;28;20063;-58
2022/11/28 06:24:22;;;;;;;77.13;36.83;;;;;;;7.85;100.00;100648.38;5115509;28;20044;-58
2022/11/28 06:26:47;;;;;;;83.82;37.72;;;;;;;8.20;100.00;100708.63;5097180;28;20324;-57
2022/11/28 06:29:12;;;;;;;92.20;37.83;;;;;;;8.08;100.00;100701.09;5115428;28;20470;-58
2022/11/28 06:31:38;;;;;;;85.63;38.78;;;;;;;8.20;100.00;100723.53;5115501;28;20032;-57
2022/11/28 06:34:03;;;;;;;78.63;38.28;;;;;;;8.20;100.00;100721.75;5115310;28;20510;-58
2022/11/28 06:36:29;;;;;;;78.18;37.75;;;;;;;7.84;100.00;100663.22;5115426;28;20076;-57
2022/11/28 06:38:55;;;;;;;78.75;36.80;;;;;;;7.88;100.00;100674.50;5115227;28;20039;-58
2022/11/28 06:41:21;;;;;;;82.70;37.60;;;;;;;8.18;100.00;100741.03;5115777;28;20027;-58
2022/11/28 06:43:47;;;;;;;97.40;39.25;;;;;;;7.99;100.00;100703.06;5115200;28;20060;-58
2022/11/28 06:46:15;;;;;;;85.82;37.97;;;;;;;8.08;100.00;100727.31;5115163;28;20492;-58
2022/11/28 06:48:40;;;;;;;95.60;39.80;;;;;;;7.44;100.00;100611.81;5096689;28;20501;-58
2022/11/28 06:51:06;;;;;;;93.75;39.50;;;;;;;8.15;100.00;100728.88;5115194;28;20036;-58
2022/11/28 06:53:32;;;;;;;95.78;39.85;;;;;;;7.78;100.00;100668.59;5113754;28;20106;-58
2022/11/28 06:56:03;;;;;;;97.10;38.72;;;;;;;7.85;100.00;100685.88;5079896;28;20031;-57
2022/11/28 06:58:28;;;;;;;111.18;40.47;;;;;;;8.15;100.00;100736.72;5096769;28;20466;-58
2022/11/28 07:00:53;;;;;;;111.85;41.78;;;;;;;7.90;100.00;100693.66;5096172;28;20051;-58
2022/11/28 07:03:19;;;;;;;102.15;41.83;;;;;;;8.04;100.00;100717.78;5114873;28;20123;-57
2022/11/28 07:05:44;;;;;;;96.45;39.78;;;;;;;8.24;100.00;100738.25;5114647;28;20036;-58
2022/11/28 07:08:10;;;;;;;98.57;40.20;;;;;;;7.94;100.00;100700.53;5114673;28;20126;-58
2022/11/28 07:10:35;;;;;;;113.18;41.53;;;;;;;8.21;100.00;100736.59;5114545;28;20055;-59
2022/11/28 07:13:01;;;;;;;116.13;43.00;;;;;;;8.24;100.00;100739.13;5114262;28;20462;-57
2022/11/28 07:15:26;;;;;;;127.18;41.65;;;;;;;8.28;100.00;100746.06;5114605;28;20515;-57
2022/11/28 07:17:52;;;;;;;129.73;43.53;;;;;;;8.26;100.00;100750.44;5114378;28;20028;-57
2022/11/28 07:20:18;;;;;;;108.82;41.28;;;;;;;8.29;100.00;100749.56;5114290;28;20039;-57
2022/11/28 07:22:45;;;;;;;109.72;40.10;;;;;;;8.38;100.00;100772.91;5114245;28;20372;-57
2022/11/28 07:25:11;;;;;;;112.07;39.67;;;;;;;7.94;100.00;100687.44;5114482;28;20111;-58
2022/11/28 07:27:37;;;;;;;108.95;41.25;;;;;;;8.37;100.00;100761.59;5096190;28;20382;-58
2022/11/28 07:30:03;;;;;;;148.68;43.60;;;;;;;8.18;100.00;100734.03;5114312;28;20040;-57
2022/11/28 07:32:28;;;;;;;113.03;40.40;;;;;;;8.40;100.00;100760.63;5095775;28;20036;-57
2022/11/28 07:34:53;;;;;;;133.13;43.17;;;;;;;8.42;100.00;100779.81;5114138;28;20055;-57
2022/11/28 07:37:19;;;;;;;113.97;41.63;;;;;;;8.10;100.00;100717.63;5113730;28;20038;-58
2022/11/28 07:39:44;;;;;;;123.13;41.30;;;;;;;8.16;100.00;100716.63;5095739;28;20470;-57
2022/11/28 07:42:10;;;;;;;128.45;42.38;;;;;;;8.11;100.00;100701.00;5113581;28;20546;-56
2022/11/28 07:44:35;;;;;;;121.10;41.28;;;;;;;8.47;100.00;100759.56;5114190;28;20065;-57
2022/11/28 07:47:01;;;;;;;131.27;42.70;;;;;;;8.57;100.00;100773.31;5113945;28;20092;-57
2022/11/28 07:49:26;;;;;;;126.65;42.92;;;;;;;8.58;100.00;100769.81;5095596;28;20028;-57
2022/11/28 07:51:52;;;;;;;124.00;42.63;;;;;;;8.57;100.00;100778.56;5113811;28;20122;-57
2022/11/28 07:54:17;;;;;;;138.80;43.40;;;;;;;8.58;100.00;100768.03;5113577;28;20032;-58
2022/11/28 07:56:42;;;;;;;167.55;45.72;;;;;;;8.59;100.00;100771.50;5113585;28;20043;-58
2022/11/28 07:59:08;;;;;;;165.25;45.10;;;;;;;8.58;100.00;100772.44;5113741;28;20038;-58
2022/11/28 08:01:34;;;;;;;151.60;44.00;;;;;;;8.17;100.00;100715.72;5113804;28;20188;-58
2022/11/28 08:04:01;;;;;;;139.05;42.60;;;;;;;8.64;100.00;100782.78;5113133;28;20035;-58
2022/11/28 08:06:28;;;;;;;143.00;44.25;;;;;;;8.67;100.00;100801.91;5113674;28;20034;-57
2022/11/28 08:08:55;;;;;;;173.85;46.28;;;;;;;8.65;100.00;100800.22;5095273;28;20042;-57
2022/11/28 08:11:22;;;;;;;169.40;46.70;;;;;;;8.36;100.00;100754.59;5113549;28;20375;-57
2022/11/28 08:13:47;;;;;;;163.93;45.17;;;;;;;8.58;100.00;100789.00;5095245;28;20031;-56
2022/11/28 08:16:16;;;;;;;154.80;47.42;;;;;;;8.75;100.00;100806.97;5095109;28;20071;-57
2022/11/28 08:18:42;;;;;;;146.73;47.17;;;;;;;8.32;100.00;100721.47;5094825;28;20028;-57
2022/11/28 08:21:16;;;;;;;155.35;47.28;;;;;;;8.83;100.00;100805.88;5113468;28;20046;-58
2022/11/28 08:23:44;;;;;;;164.88;47.38;;;;;;;8.71;100.00;100779.09;5094749;28;20048;-55
2022/11/28 08:26:12;;;;;;;160.68;47.65;;;;;;;8.65;100.00;100768.75;5113127;28;20371;-56
2022/11/28 08:28:38;;;;;;;192.68;48.92;;;;;;;8.45;100.00;100738.63;5113107;28;20073;-57
2022/11/28 08:31:18;;;;;;;175.27;46.70;;;;;;;8.85;100.00;100796.19;5110884;28;20408;-57
2022/11/28 08:33:44;;;;;;;159.70;47.28;;;;;;;8.86;100.00;100807.56;5111708;28;20157;-58
2022/11/28 08:36:10;;;;;;;187.30;48.20;;;;;;;8.86;100.00;100791.81;5111626;28;20500;-58
2022/11/28 08:38:36;;;;;;;147.20;45.63;;;;;;;8.57;100.00;100729.59;5093271;28;20031;-57
2022/11/28 08:41:04;;;;;;;175.70;48.85;;;;;;;8.89;100.00;100774.22;5111501;28;20131;-57
2022/11/28 08:43:32;;;;;;;161.10;44.90;;;;;;;8.69;100.00;100733.66;5111468;28;20142;-57
2022/11/28 08:45:58;;;;;;;159.75;48.17;;;;;;;8.38;100.00;100673.25;5111565;28;20043;-58
2022/11/28 08:48:23;;;;;;;141.75;45.80;;;;;;;8.93;100.00;100762.72;5111781;28;20046;-58
2022/11/28 08:50:49;;;;;;;157.25;47.58;;;;;;;8.76;100.00;100729.94;5093216;28;20042;-57
2022/11/28 08:53:14;;;;;;;145.75;46.75;;;;;;;9.14;100.00;100798.03;5111625;28;20032;-57
2022/11/28 08:55:43;;;;;;;154.88;45.72;;;;;;;9.12;100.00;100788.50;5110427;28;20106;-58
2022/11/28 08:58:12;;;;;;;131.73;44.08;;;;;;;8.82;100.00;100735.03;5086966;28;20028;-57
2022/11/28 09:00:38;;;;;;;138.25;44.45;;;;;;;8.89;100.00;100750.59;5085676;28;20031;-57
2022/11/28 09:03:04;;;;;;;155.18;47.63;;;;;;;8.93;100.00;100744.34;5092260;28;20028;-58
2022/11/28 09:05:30;;;;;;;153.35;49.03;;;;;;;8.91;100.00;100748.78;5072441;28;20030;-58
2022/11/28 09:07:56;;;;;;;149.32;47.45;;;;;;;8.88;100.00;100733.13;5072405;28;20498;-58
2022/11/28 09:10:22;;;;;;;137.48;45.40;;;;;;;9.29;100.00;100788.88;5091197;28;20032;-58
2022/11/28 09:12:47;;;;;;;135.48;44.38;;;;;;;9.14;100.00;100757.78;5090949;28;20471;-57
2022/11/28 09:15:12;;;;;;;139.05;44.92;;;;;;;9.10;100.00;100741.28;5072536;28;20040;-58
2022/11/28 09:17:39;;;;;;;120.93;43.45;;;;;;;9.45;100.00;100793.69;5072916;28;20395;-57
2022/11/28 09:20:05;;;;;;;119.13;42.15;;;;;;;9.14;100.00;100742.91;5089385;28;20502;-57
2022/11/28 09:22:30;;;;;;;116.68;42.85;;;;;;;9.50;100.00;100807.53;5054208;28;20044;-58
2022/11/28 09:24:55;;;;;;;122.65;42.10;;;;;;;9.53;100.00;100814.47;5090313;28;20395;-57
2022/11/28 09:27:21;;;;;;;114.30;41.85;;;;;;;9.19;100.00;100741.03;5072200;28;20040;-57
2022/11/28 09:29:46;;;;;;;111.00;41.00;;;;;;;9.26;100.00;100752.19;5089696;28;20458;-58
2022/11/28 09:32:11;;;;;;;100.35;39.30;;;;;;;9.46;100.00;100779.63;5090858;28;20486;-57
2022/11/28 09:34:37;;;;;;;105.30;38.45;;;;;;;9.67;100.00;100808.81;5090717;28;20036;-58
2022/11/28 09:37:02;;;;;;;102.70;36.85;;;;;;;9.23;100.00;100732.13;5090974;28;20036;-58
2022/11/28 09:39:27;;;;;;;100.20;36.03;;;;;;;9.66;100.00;100805.31;5056147;28;20064;-58
2022/11/28 09:42:10;;;;;;;98.40;36.42;;;;;;;9.73;100.00;100824.41;5090675;28;20043;-58
2022/11/28 09:44:47;;;;;;;79.35;33.67;;;;;;;9.63;100.00;100793.13;5072522;28;20090;-58
2022/11/28 09:47:31;;;;;;;82.80;33.78;;;;;;;9.75;100.00;100809.47;5090445;28;20172;-58
2022/11/28 09:50:06;;;;;;;83.68;33.10;;;;;;;9.80;100.00;100820.72;5071404;28;20032;-56
2022/11/28 09:53:09;;;;;;;77.47;33.35;;;;;;;9.84;100.00;100824.94;5055164;28;20032;-59
2022/11/28 09:55:48;;;;;;;83.18;32.50;;;;;;;9.73;100.00;100827.03;5089408;28;20043;-59
2022/11/28 09:58:30;;;;;;;75.70;32.63;;;;;;;9.86;100.00;100826.66;5088685;28;20036;-60
2022/11/28 10:01:31;;;;;;;72.95;33.17;;;;;;;9.89;100.00;100820.44;5069710;28;20179;-61
2022/11/28 10:04:05;;;;;;;75.10;32.05;;;;;;;9.63;100.00;100774.72;5020124;28;20035;-60
2022/11/28 10:06:39;;;;;;;68.45;31.92;;;;;;;10.01;100.00;100830.59;5071416;28;20036;-60
2022/11/28 10:09:30;;;;;;;64.90;30.92;;;;;;;9.66;100.00;100771.16;5089493;28;20043;-59
2022/11/28 10:12:21;;;;;;;65.70;30.73;;;;;;;9.96;100.00;100806.19;5089249;28;20035;-61
2022/11/28 10:14:52;;;;;;;57.55;28.70;;;;;;;9.76;100.00;100758.59;5089442;28;20135;-59
2022/11/28 10:17:45;;;;;;;66.18;30.50;;;;;;;10.11;100.00;100826.75;5070902;28;20063;-61
2022/11/28 10:20:21;;;;;;;59.63;29.98;;;;;;;10.12;100.00;100836.38;5070568;28;20028;-59
2022/11/28 10:23:02;;;;;;;65.40;32.47;;;;;;;10.06;100.00;100832.16;5088668;28;20107;-59
2022/11/28 10:25:31;;;;;;;62.15;31.10;;;;;;;9.68;100.00;100766.72;5070630;28;20028;-61
2022/11/28 10:27:56;;;;;;;70.97;31.60;;;;;;;10.00;100.00;100821.84;5073661;28;20036;-59
2022/11/28 10:30:23;;;;;;;63.97;31.45;;;;;;;10.04;100.00;100831.34;5092289;28;20035;-60
2022/11/28 10:33:05;;;;;;;62.22;32.08;;;;;;;10.04;100.00;100839.22;5074688;28;20107;-59
2022/11/28 10:35:41;;;;;;;63.90;31.90;;;;;;;9.62;100.00;100769.53;5073829;28;20044;-59
2022/11/28 10:38:14;;;;;;;61.63;30.92;;;;;;;9.80;100.00;100795.28;5092264;28;20047;-64
2022/11/28 10:40:51;;;;;;;62.17;30.60;;;;;;;10.06;100.00;100836.56;5091845;28;20131;-64
2022/11/28 10:43:33;;;;;;;65.75;32.63;;;;;;;10.12;100.00;100817.97;5092300;28;20055;-63
2022/11/28 10:46:31;;;;;;;55.75;30.80;;;;;;;10.15;100.00;100810.88;5074589;28;20036;-62
2022/11/28 10:48:59;;;;;;;54.85;29.65;;;;;;;10.49;100.00;100836.13;5091099;28;20542;-63
2022/11/28 10:51:34;;;;;;;54.13;29.02;;;;;;;10.66;100.00;100834.66;5091965;28;20032;-62
2022/11/28 10:54:17;;;;;;;54.28;29.85;;;;;;;10.44;100.00;100772.25;5074038;28;20039;-63
2022/11/28 10:57:00;;;;;;;55.10;30.92;;;;;;;10.80;100.00;100836.84;5091967;28;20032;-63
2022/11/28 10:59:42;;;;;;;57.63;32.25;;;;;;;10.85;100.00;100834.94;5091704;28;20506;-64
2022/11/28 11:02:21;;;;;;;52.92;31.45;;;;;;;10.65;100.00;100790.81;5091538;28;20093;-63
2022/11/28 11:04:47;;;;;;;55.92;30.13;;;;;;;10.84;100.00;100800.72;5072842;28;20077;-64
2022/11/28 11:07:31;;;;;;;46.60;30.33;;;;;;;11.07;100.00;100837.69;5090380;28;20048;-63
2022/11/28 11:10:16;;;;;;;48.63;29.88;;;;;;;10.76;100.00;100801.00;5091007;28;20032;-63
2022/11/28 11:12:42;;;;;;;52.78;30.75;;;;;;;10.66;100.00;100789.91;5090824;28;20417;-63
2022/11/28 11:15:21;;;;;;;50.25;29.65;;;;;;;11.07;100.00;100850.84;5091943;28;20035;-63
2022/11/28 11:17:49;;;;;;;51.60;28.52;;;;;;;10.79;100.00;100792.13;5091887;28;20062;-63
2022/11/28 11:20:36;;;;;;;48.63;27.30;;;;;;;11.11;100.00;100847.22;5090620;28;20028;-62
2022/11/28 11:23:21;;;;;;;47.80;28.17;;;;;;;10.84;100.00;100811.25;5073145;28;20065;-63